Time;durP1;ratioP1;P1;durP2;ratioP2;P2;SDS_P1;SDS_P2;PMS_P1;PMS_P2;Temp;Humidity;BMP_temperature;BMP_pressure;BME280_temperature;BME280_humidity;BME280_pressure;Samples;Min_cycle;Max_cycle;Signal;HPM_P1;HPM_P2
2022/01/05 00:04:51;;;;;;;;;;;5.20;99.90;;;;;;10210104;28;84941;-48
2022/01/05 00:09:52;;;;;;;;;;;5.20;99.90;;;;;;10209372;28;84126;-47
2022/01/05 00:14:52;;;;;;;;;;;5.30;99.90;;;;;;10209411;28;84145;-47
2022/01/05 00:19:53;;;;;;;;;;;5.40;99.90;;;;;;10208564;28;85993;-47
2022/01/05 00:24:53;;;;;;;;;;;5.50;99.90;;;;;;10210002;28;84866;-46
2022/01/05 00:29:54;;;;;;;;;;;5.40;99.90;;;;;;10208352;28;84409;-46
2022/01/05 00:34:54;;;;;;;;;;;5.40;99.90;;;;;;10209517;28;85049;-46
2022/01/05 00:39:55;;;;;;;;;;;5.40;99.90;;;;;;10208508;28;84023;-47
2022/01/05 00:44:55;;;;;;;;;;;5.30;99.90;;;;;;10209519;28;84051;-46
2022/01/05 00:49:56;;;;;;;;;;;5.30;99.90;;;;;;10209093;28;84955;-48
2022/01/05 00:54:57;;;;;;;;;;;5.30;99.90;;;;;;10208169;28;84004;-47
2022/01/05 00:59:57;;;;;;;;;;;5.30;99.90;;;;;;10208023;28;85305;-45
2022/01/05 01:04:58;;;;;;;;;;;5.30;99.90;;;;;;10208294;28;84441;-46
2022/01/05 01:09:58;;;;;;;;;;;5.20;99.90;;;;;;10207529;28;84032;-46
2022/01/05 01:14:59;;;;;;;;;;;5.10;99.90;;;;;;10205631;28;84957;-51
2022/01/05 01:19:59;;;;;;;;;;;5.20;99.90;;;;;;10207451;28;85289;-47
2022/01/05 01:25:00;;;;;;;;;;;5.20;99.90;;;;;;10208107;28;84962;-50
2022/01/05 01:30:01;;;;;;;;;;;5.20;99.90;;;;;;10206046;28;84106;-47
2022/01/05 01:35:05;;;;;;;;;;;5.10;99.90;;;;;;10207685;28;84203;-49
2022/01/05 01:40:06;;;;;;;;;;;5.10;99.90;;;;;;10206875;28;86310;-46
2022/01/05 01:45:07;;;;;;;;;;;5.00;99.90;;;;;;10207220;28;84839;-46
2022/01/05 01:50:07;;;;;;;;;;;5.00;99.90;;;;;;10206886;28;84868;-51
2022/01/05 01:55:10;;;;;;;;;;;4.90;99.90;;;;;;10207238;28;84685;-49
2022/01/05 02:00:11;;;;;;;;;;;4.90;99.90;;;;;;10206636;28;85033;-49
2022/01/05 02:05:17;;;;;;;;;;;4.80;99.90;;;;;;10206296;28;84751;-47
2022/01/05 02:10:17;;;;;;;;;;;4.80;99.90;;;;;;10205242;28;84090;-48
2022/01/05 02:15:18;;;;;;;;;;;4.70;99.90;;;;;;10188443;28;87338;-47
2022/01/05 02:20:19;;;;;;;;;;;4.70;99.90;;;;;;10204663;28;85089;-50
2022/01/05 02:25:20;;;;;;;;;;;4.70;99.90;;;;;;10205615;28;84956;-46
2022/01/05 02:30:22;;;;;;;;;;;4.60;99.90;;;;;;10205541;28;84733;-48
2022/01/05 02:35:24;;;;;;;;;;;4.50;99.90;;;;;;10205213;28;84770;-46
2022/01/05 02:40:25;;;;;;;;;;;4.40;99.90;;;;;;10209545;28;84663;-47
2022/01/05 02:45:25;;;;;;;;;;;4.40;99.90;;;;;;10212452;28;84783;-50
2022/01/05 02:50:26;;;;;;;;;;;4.30;99.90;;;;;;10212298;28;84955;-46
2022/01/05 02:55:26;;;;;;;;;;;4.30;99.90;;;;;;10210144;28;85940;-48
2022/01/05 03:00:27;;;;;;;;;;;4.30;99.90;;;;;;10212567;28;84986;-47
2022/01/05 03:05:27;;;;;;;;;;;4.20;99.90;;;;;;10211463;28;84035;-49
2022/01/05 03:10:28;;;;;;;;;;;4.20;99.90;;;;;;10211984;28;84302;-46
2022/01/05 03:15:29;;;;;;;;;;;4.10;99.90;;;;;;10209409;28;85732;-49
2022/01/05 03:20:30;;;;;;;;;;;4.00;99.90;;;;;;10211549;28;84155;-46
2022/01/05 03:25:31;;;;;;;;;;;4.00;99.90;;;;;;10211791;28;84843;-50
2022/01/05 03:30:33;;;;;;;;;;;3.90;99.90;;;;;;10193964;28;84975;-50
2022/01/05 03:35:35;;;;;;;;;;;3.80;99.90;;;;;;10211174;28;84404;-49
2022/01/05 03:40:36;;;;;;;;;;;3.70;99.90;;;;;;10209706;28;88066;-47
2022/01/05 03:45:37;;;;;;;;;;;3.70;99.90;;;;;;10209144;28;87064;-48
2022/01/05 03:50:38;;;;;;;;;;;3.60;99.90;;;;;;10209823;28;84026;-47
2022/01/05 03:55:39;;;;;;;;;;;3.60;99.90;;;;;;10209695;28;84757;-46
2022/01/05 04:00:41;;;;;;;;;;;3.50;99.90;;;;;;10210700;28;84164;-46
2022/01/05 04:05:42;;;;;;;;;;;3.50;99.90;;;;;;10210080;28;84935;-47
2022/01/05 04:10:43;;;;;;;;;;;3.60;99.90;;;;;;10210413;28;84071;-51
2022/01/05 04:15:43;;;;;;;;;;;3.50;99.90;;;;;;10209957;28;85212;-47
2022/01/05 04:20:44;;;;;;;;;;;3.40;99.90;;;;;;10208101;28;84922;-46
2022/01/05 04:25:44;;;;;;;;;;;3.30;99.90;;;;;;10207942;28;87079;-48
2022/01/05 04:30:45;;;;;;;;;;;3.30;99.90;;;;;;10209142;28;84083;-51
2022/01/05 04:35:45;;;;;;;;;;;3.30;99.90;;;;;;10208706;28;84352;-46
2022/01/05 04:40:46;;;;;;;;;;;3.30;99.90;;;;;;10209774;28;84066;-49
2022/01/05 04:45:48;;;;;;;;;;;3.30;99.90;;;;;;10209380;28;84062;-48
2022/01/05 04:50:48;;;;;;;;;;;3.30;99.90;;;;;;10209431;28;84166;-50
2022/01/05 04:55:49;;;;;;;;;;;3.20;99.90;;;;;;10206513;28;84858;-51
2022/01/05 05:00:50;;;;;;;;;;;3.20;99.90;;;;;;10208328;28;84221;-49
2022/01/05 05:05:50;;;;;;;;;;;3.20;99.90;;;;;;10207761;28;84872;-49
2022/01/05 05:10:51;;;;;;;;;;;3.30;99.90;;;;;;10205712;28;84125;-48
2022/01/05 05:15:51;;;;;;;;;;;3.20;99.90;;;;;;10204447;28;84964;-50
2022/01/05 05:20:52;;;;;;;;;;;3.10;99.90;;;;;;10207344;28;84228;-49
2022/01/05 05:25:52;;;;;;;;;;;3.10;99.90;;;;;;10202644;28;84297;-47
2022/01/05 05:30:53;;;;;;;;;;;3.10;99.90;;;;;;10205298;28;84962;-48
2022/01/05 05:35:53;;;;;;;;;;;3.10;99.90;;;;;;10214245;23;85435;-53
2022/01/05 05:40:54;;;;;;;;;;;3.20;99.90;;;;;;10203420;28;84550;-54
2022/01/05 05:45:54;;;;;;;;;;;3.20;99.90;;;;;;10203467;28;84689;-54
2022/01/05 05:50:55;;;;;;;;;;;3.30;99.90;;;;;;10203351;28;85133;-54
2022/01/05 05:55:55;;;;;;;;;;;3.40;99.90;;;;;;10205249;28;84153;-58
2022/01/05 06:00:56;;;;;;;;;;;3.40;99.90;;;;;;10195824;28;84954;-63
2022/01/05 06:05:57;;;;;;;;;;;3.50;99.90;;;;;;10181258;28;84272;-55
2022/01/05 06:10:58;;;;;;;;;;;3.40;99.90;;;;;;10202601;28;84979;-54
2022/01/05 06:15:59;;;;;;;;;;;3.40;99.90;;;;;;10202109;28;84809;-53
2022/01/05 06:20:59;;;;;;;;;;;3.30;99.90;;;;;;10190626;28;85593;-51
2022/01/05 06:26:00;;;;;;;;;;;3.30;99.90;;;;;;10201847;28;85867;-51
2022/01/05 06:31:00;;;;;;;;;;;3.30;99.90;;;;;;10197116;28;84846;-54
2022/01/05 06:36:01;;;;;;;;;;;3.30;99.90;;;;;;10198756;28;84503;-50
2022/01/05 06:41:02;;;;;;;;;;;3.30;99.90;;;;;;10204092;28;84963;-55
2022/01/05 06:46:02;;;;;;;;;;;3.30;99.90;;;;;;10205970;28;84789;-55
2022/01/05 06:51:03;;;;;;;;;;;3.30;99.90;;;;;;10198274;28;84954;-55
2022/01/05 06:56:03;;;;;;;;;;;3.40;99.90;;;;;;10187070;28;84815;-57
2022/01/05 07:01:04;;;;;;;;;;;3.30;99.90;;;;;;10197788;28;84894;-56
2022/01/05 07:06:04;;;;;;;;;;;3.30;99.90;;;;;;10201210;28;86694;-52
2022/01/05 07:11:05;;;;;;;;;;;3.30;99.90;;;;;;10205075;28;84284;-53
2022/01/05 07:16:05;;;;;;;;;;;3.40;99.90;;;;;;10194267;28;84544;-54
2022/01/05 07:21:06;;;;;;;;;;;3.40;99.90;;;;;;10201235;28;85175;-54
2022/01/05 07:26:06;;;;;;;;;;;3.40;99.90;;;;;;10204472;28;85014;-54
2022/01/05 07:31:07;;;;;;;;;;;3.50;99.90;;;;;;10208866;28;85226;-55
2022/01/05 07:36:07;;;;;;;;;;;3.50;99.90;;;;;;10209663;28;84446;-54
2022/01/05 07:41:08;;;;;;;;;;;3.50;99.90;;;;;;10211076;28;84920;-55
2022/01/05 07:46:09;;;;;;;;;;;3.60;99.90;;;;;;10210324;28;84851;-54
2022/01/05 07:51:09;;;;;;;;;;;3.60;99.90;;;;;;10208673;28;85919;-55
2022/01/05 07:56:10;;;;;;;;;;;3.60;99.90;;;;;;10209849;28;84018;-54
2022/01/05 08:01:10;;;;;;;;;;;3.70;99.90;;;;;;10210805;28;84944;-57
2022/01/05 08:06:11;;;;;;;;;;;3.70;99.90;;;;;;10210215;28;84049;-52
2022/01/05 08:11:12;;;;;;;;;;;3.90;99.90;;;;;;10210552;28;84338;-53
2022/01/05 08:16:12;;;;;;;;;;;4.00;99.90;;;;;;10209243;28;84893;-53
2022/01/05 08:21:13;;;;;;;;;;;4.00;99.90;;;;;;10209045;28;84972;-53
2022/01/05 08:26:14;;;;;;;;;;;4.10;99.90;;;;;;10208381;28;84335;-57
2022/01/05 08:31:14;;;;;;;;;;;4.10;99.90;;;;;;10209000;28;84383;-56
2022/01/05 08:36:15;;;;;;;;;;;4.10;99.90;;;;;;10205055;28;84313;-54
2022/01/05 08:41:15;;;;;;;;;;;4.10;99.90;;;;;;10208743;28;84158;-55
2022/01/05 08:46:16;;;;;;;;;;;3.90;99.90;;;;;;10207250;28;84933;-55
2022/01/05 08:51:16;;;;;;;;;;;3.80;99.90;;;;;;10206822;28;84208;-56
2022/01/05 08:56:17;;;;;;;;;;;3.70;99.90;;;;;;10208438;28;84041;-56
2022/01/05 09:01:18;;;;;;;;;;;3.70;99.90;;;;;;10208527;28;84695;-53
2022/01/05 09:06:19;;;;;;;;;;;3.60;99.90;;;;;;10207575;28;85386;-53
2022/01/05 09:11:20;;;;;;;;;;;3.60;99.90;;;;;;10206184;28;85080;-53
2022/01/05 09:16:20;;;;;;;;;;;3.50;99.90;;;;;;10206258;28;85758;-55
2022/01/05 09:21:21;;;;;;;;;;;3.60;99.90;;;;;;10208193;28;84311;-56
2022/01/05 09:26:21;;;;;;;;;;;3.50;99.90;;;;;;10206473;28;84215;-57
2022/01/05 09:31:22;;;;;;;;;;;3.50;99.90;;;;;;10208085;28;84965;-56
2022/01/05 09:36:32;;;;;;;;;;;3.60;99.90;;;;;;10206028;28;84887;-56
2022/01/05 09:47:10;;;;;;;;;;;3.90;99.90;;;;;;10204249;28;84032;-57
2022/01/05 09:52:11;;;;;;;;;;;3.90;99.90;;;;;;10205024;28;84837;-51
2022/01/05 09:57:14;;;;;;;;;;;4.00;99.90;;;;;;10205800;28;84327;-55
2022/01/05 10:02:15;;;;;;;;;;;4.00;99.90;;;;;;10205545;28;84616;-56
2022/01/05 10:07:16;;;;;;;;;;;3.90;99.90;;;;;;10203190;28;86101;-52
2022/01/05 10:12:17;;;;;;;;;;;4.00;99.90;;;;;;10205421;28;84264;-52
2022/01/05 10:17:25;;;;;;;;;;;3.90;99.90;;;;;;10203754;28;86918;-53
2022/01/05 10:22:27;;;;;;;;;;;3.80;99.90;;;;;;10206595;28;84830;-55
2022/01/05 10:27:28;;;;;;;;;;;3.80;99.90;;;;;;10203895;28;84462;-52
2022/01/05 10:32:30;;;;;;;;;;;3.60;99.90;;;;;;10205617;28;84096;-54
2022/01/05 10:37:30;;;;;;;;;;;3.60;99.90;;;;;;10205852;28;84056;-51
2022/01/05 10:42:32;;;;;;;;;;;3.70;99.90;;;;;;10206461;28;84890;-55
2022/01/05 10:47:33;;;;;;;;;;;3.60;99.90;;;;;;10204360;28;85004;-52
2022/01/05 10:52:34;;;;;;;;;;;3.60;99.90;;;;;;10206070;28;84106;-52
2022/01/05 10:57:35;;;;;;;;;;;3.70;99.90;;;;;;10205722;28;84978;-50
2022/01/05 11:02:36;;;;;;;;;;;3.80;99.90;;;;;;10212169;28;84058;-50
2022/01/05 11:07:41;;;;;;;;;;;3.80;99.90;;;;;;10212193;28;84919;-53
2022/01/05 11:12:49;;;;;;;;;;;3.90;99.90;;;;;;10212748;28;84133;-51
2022/01/05 11:18:09;;;;;;;;;;;3.90;99.90;;;;;;10212137;28;84977;-52
2022/01/05 11:23:11;;;;;;;;;;;4.00;99.90;;;;;;10212287;28;84007;-53
2022/01/05 11:28:13;;;;;;;;;;;4.20;99.90;;;;;;10210759;28;84107;-53
2022/01/05 11:33:14;;;;;;;;;;;4.40;99.90;;;;;;10211872;28;84203;-53
2022/01/05 11:38:16;;;;;;;;;;;4.40;99.90;;;;;;10239882;23;84818;-47
2022/01/05 11:43:22;;;;;;;;;;;4.20;99.90;;;;;;10210602;28;84183;-48
2022/01/05 11:48:29;;;;;;;;;;;4.20;99.90;;;;;;10208955;28;86365;-48
2022/01/05 11:53:35;;;;;;;;;;;4.30;99.90;;;;;;10209638;28;84869;-46
2022/01/05 11:58:36;;;;;;;;;;;4.40;99.90;;;;;;10208871;28;84835;-46
2022/01/05 12:03:59;;;;;;;;;;;4.30;99.90;;;;;;10209110;28;84985;-48
2022/01/05 12:09:01;;;;;;;;;;;4.20;99.90;;;;;;10208633;28;84937;-48
2022/01/05 12:14:03;;;;;;;;;;;4.10;99.90;;;;;;10207428;28;85039;-48
2022/01/05 12:19:05;;;;;;;;;;;3.90;99.90;;;;;;10208815;28;84193;-48
2022/01/05 12:24:06;;;;;;;;;;;3.90;99.90;;;;;;10208701;28;84422;-47
2022/01/05 12:29:07;;;;;;;;;;;3.90;99.90;;;;;;10208400;28;85419;-45
2022/01/05 12:34:07;;;;;;;;;;;4.00;99.90;;;;;;10207144;28;84963;-48
2022/01/05 12:39:09;;;;;;;;;;;4.10;99.90;;;;;;10207503;28;86343;-45
2022/01/05 12:44:13;;;;;;;;;;;4.10;99.90;;;;;;10207891;28;84140;-47
2022/01/05 12:49:17;;;;;;;;;;;4.20;99.90;;;;;;10206890;28;84959;-48
2022/01/05 12:54:28;;;;;;;;;;;4.40;99.90;;;;;;10206525;28;85802;-47
2022/01/05 12:59:29;;;;;;;;;;;4.50;99.90;;;;;;10206146;28;84759;-51
2022/01/05 13:04:30;;;;;;;;;;;4.60;99.90;;;;;;10206264;28;84868;-48
2022/01/05 13:09:36;;;;;;;;;;;4.90;99.90;;;;;;10205783;28;84034;-46
2022/01/05 13:14:41;;;;;;;;;;;5.20;99.90;;;;;;10205316;28;84949;-47
2022/01/05 13:19:47;;;;;;;;;;;5.30;99.90;;;;;;10202154;28;84548;-47
2022/01/05 13:24:47;;;;;;;;;;;5.40;99.90;;;;;;10203264;28;86033;-49
2022/01/05 13:29:48;;;;;;;;;;;5.40;99.90;;;;;;10206338;28;85050;-45
2022/01/05 13:34:58;;;;;;;;;;;5.60;99.90;;;;;;10206622;28;84100;-43
2022/01/05 13:40:02;;;;;;;;;;;5.70;99.90;;;;;;10207472;28;84166;-48
2022/01/05 13:45:04;;;;;;;;;;;5.80;99.90;;;;;;10205525;28;84893;-48
2022/01/05 13:50:06;;;;;;;;;;;5.80;99.90;;;;;;10205169;28;84329;-48
2022/01/05 13:55:08;;;;;;;;;;;5.80;99.90;;;;;;10204248;28;85417;-50
2022/01/05 14:00:09;;;;;;;;;;;5.90;99.90;;;;;;10204235;28;84925;-46
2022/01/05 14:05:12;;;;;;;;;;;5.90;99.90;;;;;;10203168;28;84855;-51
2022/01/05 14:10:15;;;;;;;;;;;5.90;99.90;;;;;;10203853;28;84895;-48
2022/01/05 14:15:16;;;;;;;;;;;6.00;99.90;;;;;;10203298;28;85840;-50
2022/01/05 14:20:20;;;;;;;;;;;6.10;99.90;;;;;;10203265;28;84220;-48
2022/01/05 14:25:30;;;;;;;;;;;6.20;99.90;;;;;;10203661;28;84008;-47
2022/01/05 14:30:31;;;;;;;;;;;6.30;99.90;;;;;;10204631;28;84259;-46
2022/01/05 14:35:32;;;;;;;;;;;6.40;99.90;;;;;;10210522;28;84826;-45
2022/01/05 14:40:33;;;;;;;;;;;6.40;99.90;;;;;;10216774;28;84900;-47
2022/01/05 14:45:37;;;;;;;;;;;6.30;99.90;;;;;;10216030;28;85008;-48
2022/01/05 14:50:38;;;;;;;;;;;6.30;99.90;;;;;;10217335;28;84971;-45
2022/01/05 14:55:38;;;;;;;;;;;6.30;99.90;;;;;;10219018;28;84673;-46
2022/01/05 15:00:39;;;;;;;;;;;6.30;99.90;;;;;;10213610;28;86095;-48
2022/01/05 15:05:40;;;;;;;;;;;6.40;99.90;;;;;;10217702;28;85250;-46
2022/01/05 15:10:41;;;;;;;;;;;6.40;99.90;;;;;;10213588;28;85223;-48
2022/01/05 15:15:41;;;;;;;;;;;6.40;99.90;;;;;;10215901;28;84228;-51
2022/01/05 15:20:42;;;;;;;;;;;6.40;99.90;;;;;;10215319;28;84204;-47
2022/01/05 15:25:42;;;;;;;;;;;6.40;99.90;;;;;;10215834;28;85003;-47
2022/01/05 15:30:43;;;;;;;;;;;6.40;99.90;;;;;;10214381;28;85021;-48
2022/01/05 15:35:44;;;;;;;;;;;6.30;99.90;;;;;;10215024;28;84893;-47
2022/01/05 15:40:44;;;;;;;;;;;6.30;99.90;;;;;;10214415;28;84918;-51
2022/01/05 15:45:45;;;;;;;;;;;6.30;99.90;;;;;;10211886;28;84197;-48
2022/01/05 15:50:46;;;;;;;;;;;6.30;99.90;;;;;;10208558;28;85006;-49
2022/01/05 16:01:27;;;;;;;;;;;6.30;99.90;;;;;;10207321;28;84166;-49
2022/01/05 16:06:28;;;;;;;;;;;6.40;99.90;;;;;;10207484;28;84572;-47
2022/01/05 16:11:29;;;;;;;;;;;6.50;99.90;;;;;;10208186;28;84204;-48
2022/01/05 16:16:30;;;;;;;;;;;6.50;99.90;;;;;;10206926;28;85027;-49
2022/01/05 16:21:30;;;;;;;;;;;6.40;99.90;;;;;;10207119;28;84191;-50
2022/01/05 16:26:31;;;;;;;;;;;6.30;99.90;;;;;;10208669;28;84062;-50
2022/01/05 16:31:33;;;;;;;;;;;6.30;99.90;;;;;;10201230;28;84423;-50
2022/01/05 16:36:33;;;;;;;;;;;6.30;99.90;;;;;;10203303;28;84800;-47
2022/01/05 16:41:34;;;;;;;;;;;6.30;99.90;;;;;;10203046;28;84227;-48
2022/01/05 16:46:39;;;;;;;;;;;6.30;99.90;;;;;;10207022;28;84949;-47
2022/01/05 16:51:40;;;;;;;;;;;6.20;99.90;;;;;;10202181;28;84927;-52
2022/01/05 17:00:24;;;;;;;;;;;6.20;99.90;;;;;;10187634;28;84956;-50
2022/01/05 17:02:02;;;;;;;;;;;6.10;99.90;;;;;;10171823;28;84853;-50
2022/01/05 17:07:04;;;;;;;;;;;6.00;99.90;;;;;;10174700;28;84258;-53
2022/01/05 17:12:06;;;;;;;;;;;6.00;99.90;;;;;;10190179;28;84245;-48
2022/01/05 17:17:11;;;;;;;;;;;6.10;99.90;;;;;;10203175;28;84968;-51
2022/01/05 17:22:12;;;;;;;;;;;6.10;99.90;;;;;;10204943;28;85171;-50
2022/01/05 17:27:12;;;;;;;;;;;6.00;99.90;;;;;;10204195;28;84935;-52
2022/01/05 17:32:13;;;;;;;;;;;5.90;99.90;;;;;;10205428;28;84864;-51
2022/01/05 17:37:14;;;;;;;;;;;5.90;99.90;;;;;;10237136;23;85127;-52
2022/01/05 17:42:14;;;;;;;;;;;5.90;99.90;;;;;;10249369;28;85261;-53
2022/01/05 17:47:15;;;;;;;;;;;5.90;99.90;;;;;;10191159;28;86830;-54
2022/01/05 17:52:15;;;;;;;;;;;5.90;99.90;;;;;;10205088;28;84336;-55
2022/01/05 17:57:16;;;;;;;;;;;5.90;99.90;;;;;;10215228;28;84409;-51
2022/01/05 18:02:17;;;;;;;;;;;5.90;99.90;;;;;;10213201;28;84371;-53
2022/01/05 18:07:17;;;;;;;;;;;5.90;99.90;;;;;;10214650;28;84383;-52
2022/01/05 18:12:18;;;;;;;;;;;5.90;99.90;;;;;;10214687;28;84991;-53
2022/01/05 18:17:18;;;;;;;;;;;5.90;99.90;;;;;;10201758;28;84866;-56
2022/01/05 18:22:21;;;;;;;;;;;5.90;99.90;;;;;;10194591;28;84895;-56
2022/01/05 18:27:21;;;;;;;;;;;5.90;99.90;;;;;;10215434;28;86771;-56
2022/01/05 18:32:22;;;;;;;;;;;6.00;99.90;;;;;;10247665;28;84950;-55
2022/01/05 18:37:23;;;;;;;;;;;6.00;99.90;;;;;;10218972;28;84854;-55
2022/01/05 18:42:24;;;;;;;;;;;6.00;99.90;;;;;;10204467;28;85401;-53
2022/01/05 18:47:25;;;;;;;;;;;6.00;99.90;;;;;;10182338;28;84429;-55
2022/01/05 18:52:26;;;;;;;;;;;6.00;99.90;;;;;;10170502;28;85370;-55
2022/01/05 18:57:27;;;;;;;;;;;6.10;99.90;;;;;;10173003;28;87545;-54
2022/01/05 19:02:28;;;;;;;;;;;6.20;99.90;;;;;;10176940;28;85497;-56
2022/01/05 19:07:28;;;;;;;;;;;6.20;99.90;;;;;;10185711;28;87288;-55
2022/01/05 19:12:29;;;;;;;;;;;6.30;99.90;;;;;;10174856;28;84495;-55
2022/01/05 19:17:29;;;;;;;;;;;6.30;99.90;;;;;;10171782;28;85106;-55
2022/01/05 19:22:30;;;;;;;;;;;6.30;99.90;;;;;;10178439;28;84801;-55
2022/01/05 19:27:31;;;;;;;;;;;6.20;99.90;;;;;;10183350;28;85709;-53
2022/01/05 19:32:31;;;;;;;;;;;6.10;99.90;;;;;;10195478;28;87393;-56
2022/01/05 19:37:32;;;;;;;;;;;6.20;99.90;;;;;;10176429;28;84861;-53
2022/01/05 19:42:33;;;;;;;;;;;6.20;99.90;;;;;;10208602;28;84199;-64
2022/01/05 19:47:33;;;;;;;;;;;6.20;99.90;;;;;;10187717;28;85964;-66
2022/01/05 19:52:39;;;;;;;;;;;6.10;99.90;;;;;;10206557;28;84310;-58
2022/01/05 19:57:39;;;;;;;;;;;6.10;99.90;;;;;;10208960;28;84937;-64
2022/01/05 20:02:40;;;;;;;;;;;6.10;99.90;;;;;;10209563;28;84239;-64
2022/01/05 20:07:46;;;;;;;;;;;6.10;99.90;;;;;;10208844;28;84508;-62
2022/01/05 20:12:48;;;;;;;;;;;6.00;99.90;;;;;;10202871;28;85028;-62
2022/01/05 20:17:50;;;;;;;;;;;6.00;99.90;;;;;;10204484;28;84899;-62
2022/01/05 20:22:51;;;;;;;;;;;5.90;99.90;;;;;;10208943;28;84207;-62
2022/01/05 20:27:51;;;;;;;;;;;6.00;99.90;;;;;;10205233;28;86269;-63
2022/01/05 20:32:52;;;;;;;;;;;5.90;99.90;;;;;;10204850;28;84789;-64
2022/01/05 20:37:53;;;;;;;;;;;5.90;99.90;;;;;;10166157;28;1068143;-61
2022/01/05 20:42:53;;;;;;;;;;;5.90;99.90;;;;;;10206527;28;85945;-64
2022/01/05 20:47:54;;;;;;;;;;;5.70;99.90;;;;;;10207257;28;84208;-61
2022/01/05 20:52:54;;;;;;;;;;;5.60;99.90;;;;;;10205125;28;84527;-61
2022/01/05 20:57:56;;;;;;;;;;;5.60;99.90;;;;;;10207966;28;84444;-60
2022/01/05 21:02:57;;;;;;;;;;;5.60;99.90;;;;;;10205886;28;85184;-63
2022/01/05 21:07:57;;;;;;;;;;;5.60;99.90;;;;;;10204733;28;86308;-61
2022/01/05 21:12:59;;;;;;;;;;;5.60;99.90;;;;;;10205337;28;84271;-60
2022/01/05 21:18:01;;;;;;;;;;;5.50;99.90;;;;;;10205519;28;84150;-61
2022/01/05 21:23:01;;;;;;;;;;;5.40;99.90;;;;;;10203794;28;84416;-60
2022/01/05 21:28:02;;;;;;;;;;;5.30;99.90;;;;;;10203159;28;84848;-62
2022/01/05 21:33:05;;;;;;;;;;;5.30;99.90;;;;;;10203419;28;84990;-55
2022/01/05 21:38:05;;;;;;;;;;;5.20;99.90;;;;;;10201303;28;85622;-55
2022/01/05 21:43:06;;;;;;;;;;;5.20;99.90;;;;;;10203964;28;87179;-57
2022/01/05 21:48:07;;;;;;;;;;;5.20;99.90;;;;;;10206500;28;84839;-58
2022/01/05 21:53:08;;;;;;;;;;;5.20;99.90;;;;;;10208322;28;84077;-57
2022/01/05 21:58:09;;;;;;;;;;;5.20;99.90;;;;;;10205928;28;86505;-57
2022/01/05 22:03:09;;;;;;;;;;;5.20;99.90;;;;;;10206615;28;84884;-59
2022/01/05 22:08:10;;;;;;;;;;;5.10;99.90;;;;;;10201614;28;85913;-58
2022/01/05 22:13:10;;;;;;;;;;;5.10;99.90;;;;;;10205135;28;84886;-60
2022/01/05 22:18:11;;;;;;;;;;;5.00;99.90;;;;;;10204600;28;86971;-60
2022/01/05 22:23:12;;;;;;;;;;;5.00;99.90;;;;;;10205644;28;86847;-59
2022/01/05 22:28:13;;;;;;;;;;;4.90;99.90;;;;;;10206344;28;84379;-54
2022/01/05 22:33:14;;;;;;;;;;;4.90;99.90;;;;;;10207844;28;84405;-57
2022/01/05 22:38:14;;;;;;;;;;;4.80;99.90;;;;;;10204777;28;86115;-57
2022/01/05 22:43:15;;;;;;;;;;;4.80;99.90;;;;;;10204951;28;85884;-59
2022/01/05 22:48:15;;;;;;;;;;;4.80;99.90;;;;;;10206099;28;84081;-59
2022/01/05 22:53:18;;;;;;;;;;;4.80;99.90;;;;;;10206395;28;84472;-61
2022/01/05 22:58:19;;;;;;;;;;;4.70;99.90;;;;;;10210865;28;84190;-63
2022/01/05 23:03:20;;;;;;;;;;;4.70;99.90;;;;;;10216041;28;84018;-60
2022/01/05 23:08:21;;;;;;;;;;;4.60;99.90;;;;;;10215082;28;84362;-58
2022/01/05 23:13:21;;;;;;;;;;;4.60;99.90;;;;;;10211513;28;85826;-59
2022/01/05 23:18:22;;;;;;;;;;;4.60;99.90;;;;;;10210758;28;86258;-58
2022/01/05 23:23:24;;;;;;;;;;;4.60;99.90;;;;;;10210330;28;84188;-57
2022/01/05 23:28:25;;;;;;;;;;;4.50;99.90;;;;;;10211825;28;84215;-53
2022/01/05 23:33:25;;;;;;;;;;;4.50;99.90;;;;;;10212435;28;84155;-57
2022/01/05 23:38:27;;;;;;;;;;;4.50;99.90;;;;;;10228501;23;84174;-56
2022/01/05 23:43:31;;;;;;;;;;;4.40;99.90;;;;;;10177816;28;84954;-55
2022/01/05 23:48:34;;;;;;;;;;;4.40;99.90;;;;;;10170452;28;84954;-56
2022/01/05 23:53:34;;;;;;;;;;;4.30;99.90;;;;;;10170501;28;84919;-57
2022/01/05 23:58:35;;;;;;;;;;;4.30;99.90;;;;;;10151910;28;86027;-53
